Terminal Aerodrome Forecast
Issued by NWS

Home | Current Version | Previous Version | Graphics & Text | Print | Product List | Glossary On
Versions: 1 2 3 4 5 6 7 8 9 10 11 12 13 14 15 16 17 18 19
000
FTUS43 KABR 132340
TAFPIR
TAF
KPIR 132340Z 1400/1424 36011KT P6SM BKN120
     FM140500 32008KT P6SM OVC035
     FM141200 29010KT 2SM -SN OVC010
     FM141700 33015G24KT 5SM -SN OVC015
     FM142200 33017G24KT P6SM BKN035=

USA.gov is the U.S. government's official web portal to all federal, state and local government web resources and services.